Time;durP1;ratioP1;P1;durP2;ratioP2;P2;SDS_P1;SDS_P2;PMS_P1;PMS_P2;Temp;Humidity;BMP_temperature;BMP_pressure;BME280_temperature;BME280_humidity;BME280_pressure;Samples;Min_cycle;Max_cycle;Signal;HPM_P1;HPM_P2
2021/08/04 00:02:04;;;;;;;7.47;3.30;;;15.90;84.40;;;;;;5032354;28;20308;-76
2021/08/04 00:04:30;;;;;;;8.55;3.17;;;15.80;84.60;;;;;;5033653;28;20034;-75
2021/08/04 00:06:56;;;;;;;5.70;3.10;;;15.80;84.80;;;;;;5032555;28;20026;-76
2021/08/04 00:09:21;;;;;;;8.23;3.47;;;15.70;85.00;;;;;;5033717;28;20039;-75
2021/08/04 00:11:47;;;;;;;6.78;3.55;;;15.60;85.20;;;;;;5032506;28;20332;-76
2021/08/04 00:14:13;;;;;;;7.30;3.22;;;15.60;85.40;;;;;;5032288;28;20041;-76
2021/08/04 00:16:39;;;;;;;7.07;3.20;;;15.60;85.60;;;;;;5032325;28;20049;-75
2021/08/04 00:19:05;;;;;;;9.57;3.35;;;15.60;85.60;;;;;;5032341;28;20404;-75
2021/08/04 00:21:31;;;;;;;;;;;15.60;85.70;;;;;;5034105;28;20037;-75
2021/08/04 00:23:57;;;;;;;7.43;3.53;;;15.60;85.60;;;;;;5033884;28;19917;-75
2021/08/04 00:26:22;;;;;;;5.45;2.92;;;15.60;85.40;;;;;;5033448;28;20026;-74
2021/08/04 00:28:48;;;;;;;9.30;3.25;;;15.60;85.60;;;;;;5033448;28;20037;-75
2021/08/04 00:31:14;;;;;;;;;;;15.50;85.70;;;;;;5032520;28;20029;-76
2021/08/04 00:33:40;;;;;;;6.95;3.30;;;15.50;85.70;;;;;;5033347;28;19913;-75
2021/08/04 00:36:05;;;;;;;7.03;3.17;;;15.50;85.70;;;;;;5031996;28;20025;-75
2021/08/04 00:38:31;;;;;;;7.20;3.58;;;15.40;86.00;;;;;;5032021;28;20061;-75
2021/08/04 00:40:57;;;;;;;7.60;3.50;;;15.40;86.40;;;;;;5033167;28;20045;-76
2021/08/04 00:43:23;;;;;;;7.60;3.45;;;15.40;86.70;;;;;;5015336;28;20037;-75
2021/08/04 00:45:49;;;;;;;6.53;3.08;;;15.30;87.00;;;;;;5033170;28;20030;-75
2021/08/04 00:48:17;;;;;;;8.10;3.40;;;15.30;87.20;;;;;;5033082;28;20033;-74
2021/08/04 00:50:43;;;;;;;7.72;3.47;;;15.30;87.50;;;;;;5031705;28;20018;-75
2021/08/04 00:53:23;;;;;;;8.90;3.53;;;15.30;87.70;;;;;;5033023;28;20035;-75
2021/08/04 00:55:50;;;;;;;5.68;3.05;;;15.20;88.10;;;;;;5032152;28;20092;-76
2021/08/04 00:58:18;;;;;;;6.30;3.47;;;15.20;88.10;;;;;;5032797;28;20041;-73
2021/08/04 01:00:55;;;;;;;7.13;3.53;;;15.20;88.30;;;;;;5031543;28;20365;-76
2021/08/04 01:03:23;;;;;;;6.70;3.70;;;15.20;88.70;;;;;;5032626;28;20045;-74
2021/08/04 01:05:56;;;;;;;7.65;3.20;;;15.20;88.70;;;;;;5032805;28;20083;-75
2021/08/04 01:08:32;;;;;;;7.95;3.70;;;15.10;88.90;;;;;;5031408;28;20391;-75
2021/08/04 01:11:01;;;;;;;6.72;3.25;;;15.10;89.20;;;;;;5032645;28;20021;-76
2021/08/04 01:13:36;;;;;;;8.75;3.30;;;15.10;89.10;;;;;;5032659;28;20103;-76
2021/08/04 01:16:10;;;;;;;6.82;2.88;;;15.00;89.30;;;;;;5031172;28;20033;-76
2021/08/04 01:18:53;;;;;;;8.02;4.03;;;15.00;89.70;;;;;;5032663;28;20025;-75
2021/08/04 01:21:28;;;;;;;7.50;3.35;;;15.00;90.00;;;;;;5031149;28;20383;-75
2021/08/04 01:24:17;;;;;;;6.25;3.35;;;15.00;90.00;;;;;;5032381;28;20065;-75
2021/08/04 01:26:45;;;;;;;10.20;3.45;;;14.90;90.00;;;;;;5032300;28;20476;-75
2021/08/04 01:29:16;;;;;;;6.90;3.28;;;15.00;90.00;;;;;;5030994;28;20044;-76
2021/08/04 01:31:44;;;;;;;7.47;3.28;;;15.00;90.00;;;;;;5032296;28;20018;-76
2021/08/04 01:34:11;;;;;;;5.90;3.00;;;14.90;90.00;;;;;;5032276;28;20036;-75
2021/08/04 01:36:38;;;;;;;6.95;3.38;;;14.90;90.10;;;;;;5030934;28;20571;-76
2021/08/04 01:39:05;;;;;;;7.25;3.40;;;14.90;90.20;;;;;;5032246;28;20034;-76
2021/08/04 01:41:33;;;;;;;6.30;3.17;;;14.90;90.20;;;;;;5030852;28;20051;-75
2021/08/04 01:44:00;;;;;;;7.50;3.45;;;14.90;90.30;;;;;;5032142;28;20028;-75
2021/08/04 01:46:27;;;;;;;6.90;3.28;;;14.90;90.40;;;;;;5032008;28;20025;-76
2021/08/04 01:48:54;;;;;;;7.50;3.78;;;14.90;90.40;;;;;;5031951;28;20025;-75
2021/08/04 01:51:22;;;;;;;7.20;2.90;;;14.90;90.40;;;;;;5030705;28;20404;-76
2021/08/04 01:53:49;;;;;;;7.32;3.30;;;14.90;90.50;;;;;;5031873;28;20120;-76
2021/08/04 01:56:15;;;;;;;6.57;3.53;;;14.90;90.50;;;;;;5030443;28;20559;-75
2021/08/04 01:58:41;;;;;;;;;;;14.90;90.60;;;;;;5031038;28;20037;-75
2021/08/04 02:01:07;;;;;;;7.10;3.20;;;14.90;90.50;;;;;;5030421;28;20291;-75
2021/08/04 02:03:33;;;;;;;6.32;3.38;;;15.00;90.50;;;;;;5010507;28;20416;-76
2021/08/04 02:06:05;;;;;;;8.18;3.47;;;15.00;90.50;;;;;;5011886;28;20105;-76
2021/08/04 02:08:42;;;;;;;9.00;3.63;;;15.00;90.60;;;;;;5011758;28;20026;-75
2021/08/04 02:11:26;;;;;;;5.70;2.88;;;15.00;90.60;;;;;;5011921;28;20419;-75
2021/08/04 02:14:08;;;;;;;7.22;3.38;;;15.10;90.70;;;;;;5011894;28;20034;-75
2021/08/04 02:16:58;;;;;;;6.60;3.38;;;15.00;90.70;;;;;;5011776;28;20456;-76
2021/08/04 02:19:38;;;;;;;6.30;2.83;;;15.00;90.70;;;;;;5010548;28;20116;-74
2021/08/04 02:22:19;;;;;;;7.72;3.15;;;15.00;90.80;;;;;;5011671;28;20098;-74
2021/08/04 02:25:01;;;;;;;5.85;3.03;;;15.10;90.80;;;;;;5011613;28;20026;-76
2021/08/04 02:27:28;;;;;;;7.07;3.65;;;15.10;90.90;;;;;;5011702;28;20030;-76
2021/08/04 02:29:57;;;;;;;6.93;3.20;;;15.10;90.90;;;;;;5012062;28;20022;-75
2021/08/04 02:32:24;;;;;;;6.75;3.20;;;15.20;90.90;;;;;;5011746;28;20022;-76
2021/08/04 02:34:50;;;;;;;6.22;3.30;;;15.20;91.00;;;;;;5011540;28;20038;-76
2021/08/04 02:37:17;;;;;;;6.53;3.30;;;15.20;91.00;;;;;;5010294;28;20038;-76
2021/08/04 02:39:42;;;;;;;8.15;3.55;;;15.30;90.90;;;;;;5010179;28;20091;-74
2021/08/04 02:42:09;;;;;;;7.18;3.35;;;15.30;90.90;;;;;;5011774;28;20468;-75
2021/08/04 02:44:35;;;;;;;6.90;3.20;;;15.30;91.00;;;;;;5011366;28;20030;-75
2021/08/04 02:47:01;;;;;;;5.93;3.20;;;15.30;91.00;;;;;;5010244;28;20068;-76
2021/08/04 02:49:27;;;;;;;6.68;3.00;;;15.30;91.00;;;;;;5011443;28;20489;-74
2021/08/04 02:51:53;;;;;;;5.10;2.65;;;15.30;91.00;;;;;;5010151;28;20033;-75
2021/08/04 02:54:19;;;;;;;6.97;3.35;;;15.30;91.10;;;;;;5011561;28;20056;-76
2021/08/04 02:56:47;;;;;;;8.05;3.08;;;15.30;91.10;;;;;;5011232;28;20041;-75
2021/08/04 02:59:13;;;;;;;7.05;3.58;;;15.40;91.10;;;;;;5011356;28;20447;-76
2021/08/04 03:01:38;;;;;;;6.25;2.88;;;15.30;91.10;;;;;;5015350;28;20045;-76
2021/08/04 03:04:04;;;;;;;7.18;3.53;;;15.30;91.10;;;;;;5013342;28;20048;-77
2021/08/04 03:06:30;;;;;;;7.78;3.30;;;15.30;91.10;;;;;;5029760;28;20025;-75
2021/08/04 03:08:56;;;;;;;7.72;3.92;;;15.30;91.10;;;;;;5029792;28;20388;-75
2021/08/04 03:11:21;;;;;;;5.88;3.30;;;15.30;91.20;;;;;;5013269;28;20026;-75
2021/08/04 03:13:47;;;;;;;8.70;3.35;;;15.30;91.20;;;;;;5030905;28;20503;-75
2021/08/04 03:16:13;;;;;;;6.50;3.25;;;15.20;91.30;;;;;;5013135;28;20135;-76
2021/08/04 03:18:38;;;;;;;7.93;3.45;;;15.20;91.40;;;;;;5030853;28;20037;-76
2021/08/04 03:21:04;;;;;;;6.38;3.33;;;15.20;91.40;;;;;;5033105;28;20033;-75
2021/08/04 03:23:30;;;;;;;7.35;3.50;;;15.20;91.40;;;;;;5033575;28;20484;-76
2021/08/04 03:25:55;;;;;;;7.78;2.90;;;15.20;91.50;;;;;;5034571;28;20105;-76
2021/08/04 03:28:21;;;;;;;9.55;3.58;;;15.20;91.50;;;;;;5033419;28;20037;-75
2021/08/04 03:30:47;;;;;;;6.43;3.00;;;15.20;91.60;;;;;;5034587;28;20088;-77
2021/08/04 03:33:13;;;;;;;7.60;3.58;;;15.20;91.60;;;;;;5034487;28;20057;-75
2021/08/04 03:35:39;;;;;;;6.70;3.47;;;15.30;91.60;;;;;;5033373;28;20411;-76
2021/08/04 03:38:04;;;;;;;8.88;3.60;;;15.30;91.70;;;;;;5034504;28;20057;-75
2021/08/04 03:40:30;;;;;;;8.48;3.38;;;15.30;91.70;;;;;;5033144;28;20034;-76
2021/08/04 03:42:56;;;;;;;7.18;3.60;;;15.30;91.70;;;;;;5033116;28;20108;-75
2021/08/04 03:45:21;;;;;;;6.60;3.55;;;15.30;91.80;;;;;;5034276;28;20029;-75
2021/08/04 03:47:47;;;;;;;9.07;3.67;;;15.30;91.80;;;;;;5033089;28;20065;-75
2021/08/04 03:50:13;;;;;;;6.82;3.50;;;15.30;91.80;;;;;;5032934;28;20037;-74
2021/08/04 03:52:43;;;;;;;7.05;3.67;;;15.30;91.80;;;;;;5034315;28;20067;-75
2021/08/04 03:55:09;;;;;;;7.32;3.55;;;15.30;91.80;;;;;;5034094;28;20067;-76
2021/08/04 03:57:35;;;;;;;8.15;3.30;;;15.30;91.90;;;;;;5032878;28;20049;-75
2021/08/04 04:00:01;;;;;;;7.53;3.50;;;15.30;91.90;;;;;;5034050;28;20083;-75
2021/08/04 04:02:26;;;;;;;9.02;3.60;;;15.40;91.90;;;;;;5033823;28;20053;-75
2021/08/04 04:04:52;;;;;;;8.40;3.92;;;15.40;91.80;;;;;;5033757;28;20108;-77
2021/08/04 04:07:18;;;;;;;8.45;3.60;;;15.50;91.90;;;;;;5033986;28;20037;-74
2021/08/04 04:09:43;;;;;;;7.00;3.17;;;15.50;91.70;;;;;;5032794;28;20030;-76
2021/08/04 04:12:09;;;;;;;8.05;3.20;;;15.50;91.80;;;;;;5033855;28;20105;-76
2021/08/04 04:14:35;;;;;;;6.28;3.20;;;15.50;91.80;;;;;;5032455;28;20029;-77
2021/08/04 04:17:01;;;;;;;6.95;3.25;;;15.50;91.80;;;;;;5034054;28;20415;-78
2021/08/04 04:19:26;;;;;;;7.90;3.13;;;15.60;91.80;;;;;;5033668;28;20048;-76
2021/08/04 04:21:52;;;;;;;7.05;3.90;;;15.70;91.70;;;;;;5033675;28;20040;-78
2021/08/04 04:24:18;;;;;;;6.57;3.15;;;15.70;91.60;;;;;;5033527;28;20412;-77
2021/08/04 04:26:44;;;;;;;6.57;3.60;;;15.70;91.60;;;;;;5033507;28;20032;-77
2021/08/04 04:29:09;;;;;;;6.35;3.35;;;15.80;91.50;;;;;;5032253;28;20079;-76
2021/08/04 04:31:35;;;;;;;6.80;3.20;;;15.80;91.50;;;;;;5032096;28;20033;-76
2021/08/04 04:34:01;;;;;;;7.20;3.20;;;15.80;91.40;;;;;;5015826;28;20077;-77
2021/08/04 04:36:27;;;;;;;6.97;3.40;;;15.80;91.40;;;;;;5033371;28;20109;-77
2021/08/04 04:38:52;;;;;;;7.80;3.67;;;15.80;91.40;;;;;;5033316;28;20397;-76
2021/08/04 04:41:18;;;;;;;6.05;3.50;;;15.90;91.30;;;;;;5015577;28;20030;-77
2021/08/04 04:43:44;;;;;;;8.15;3.33;;;15.90;91.30;;;;;;5033308;28;20040;-76
2021/08/04 04:46:10;;;;;;;7.72;3.30;;;15.80;91.50;;;;;;5033041;28;20029;-77
2021/08/04 04:48:35;;;;;;;7.07;3.70;;;15.90;91.30;;;;;;5031977;28;20091;-76
2021/08/04 04:51:01;;;;;;;7.88;3.42;;;15.80;91.30;;;;;;5033133;28;20029;-77
2021/08/04 04:53:27;;;;;;;7.68;3.45;;;15.80;91.30;;;;;;5033089;28;20076;-76
2021/08/04 04:55:54;;;;;;;8.95;3.58;;;15.80;91.40;;;;;;5032953;28;20037;-76
2021/08/04 04:58:19;;;;;;;6.78;3.55;;;15.80;91.50;;;;;;5031791;28;20029;-75
2021/08/04 05:00:45;;;;;;;9.07;3.63;;;15.80;91.60;;;;;;5033211;28;20051;-77
2021/08/04 05:03:11;;;;;;;8.13;3.72;;;15.80;91.70;;;;;;5032670;28;20543;-78
2021/08/04 05:05:36;;;;;;;9.88;3.65;;;15.80;91.70;;;;;;5031411;28;20488;-75
2021/08/04 05:08:02;;;;;;;8.07;3.75;;;15.90;91.70;;;;;;5031688;28;20021;-77
2021/08/04 05:10:28;;;;;;;6.22;3.45;;;15.90;91.70;;;;;;5031359;28;20037;-76
2021/08/04 05:12:54;;;;;;;7.47;3.80;;;15.90;91.70;;;;;;5031472;28;20033;-76
2021/08/04 05:15:19;;;;;;;9.82;3.78;;;16.00;91.90;;;;;;5032522;28;20033;-76
2021/08/04 05:17:45;;;;;;;6.80;3.33;;;16.00;91.70;;;;;;5031226;28;20029;-76
2021/08/04 05:20:11;;;;;;;7.03;3.65;;;16.00;91.80;;;;;;5032745;28;20554;-76
2021/08/04 05:22:37;;;;;;;9.70;4.15;;;16.00;91.90;;;;;;5032209;28;20419;-76
2021/08/04 05:25:03;;;;;;;9.52;4.75;;;16.00;91.90;;;;;;5030682;28;20029;-72
2021/08/04 05:27:29;;;;;;;7.80;4.40;;;16.00;91.90;;;;;;5031908;28;20136;-77
2021/08/04 05:29:54;;;;;;;8.82;3.83;;;16.10;91.90;;;;;;5014498;28;20065;-78
2021/08/04 05:32:20;;;;;;;11.05;3.92;;;16.10;91.90;;;;;;5031049;28;20040;-76
2021/08/04 05:34:46;;;;;;;9.70;4.80;;;16.10;92.00;;;;;;5014481;28;20030;-76
2021/08/04 05:37:11;;;;;;;9.40;3.78;;;16.20;92.00;;;;;;5032169;28;20115;-77
2021/08/04 05:39:37;;;;;;;8.68;4.28;;;16.20;92.00;;;;;;5032079;28;20566;-76
2021/08/04 05:42:03;;;;;;;9.07;4.22;;;16.30;92.00;;;;;;5030328;28;20077;-75
2021/08/04 05:44:29;;;;;;;8.50;3.80;;;16.30;91.90;;;;;;5014232;28;20108;-78
2021/08/04 05:46:54;;;;;;;8.48;3.90;;;16.40;91.90;;;;;;5032038;28;20113;-76
2021/08/04 05:49:20;;;;;;;9.93;4.53;;;16.40;91.90;;;;;;5031773;28;20018;-76
2021/08/04 05:51:46;;;;;;;9.85;3.65;;;16.50;92.00;;;;;;5014196;28;20044;-77
2021/08/04 05:54:12;;;;;;;12.90;4.75;;;16.50;92.00;;;;;;5030664;28;20060;-75
2021/08/04 05:56:38;;;;;;;10.35;4.07;;;16.60;92.00;;;;;;5031447;28;20041;-76
2021/08/04 05:59:03;;;;;;;13.13;4.45;;;16.60;92.00;;;;;;5030504;28;20080;-76
2021/08/04 06:01:29;;;;;;;10.77;4.47;;;16.70;92.00;;;;;;5031583;28;20054;-76
2021/08/04 06:03:55;;;;;;;8.00;4.35;;;16.80;92.00;;;;;;5030397;28;20037;-76
2021/08/04 06:06:20;;;;;;;8.80;3.95;;;16.90;92.00;;;;;;5030387;28;20120;-76
2021/08/04 06:08:46;;;;;;;7.68;4.20;;;16.90;92.00;;;;;;5031664;28;20457;-75
2021/08/04 06:11:12;;;;;;;8.57;4.00;;;17.00;91.90;;;;;;5031954;28;20087;-75
2021/08/04 06:13:38;;;;;;;12.93;6.03;;;17.20;91.90;;;;;;5031352;28;20048;-77
2021/08/04 06:16:03;;;;;;;12.27;4.85;;;17.20;91.80;;;;;;5031260;28;20032;-77
2021/08/04 06:18:29;;;;;;;7.28;3.78;;;17.30;91.80;;;;;;5031280;28;20429;-76
2021/08/04 06:20:55;;;;;;;11.90;4.75;;;17.40;91.80;;;;;;5031406;28;20180;-75
2021/08/04 06:23:20;;;;;;;8.68;4.03;;;17.40;91.80;;;;;;5029896;28;20151;-75
2021/08/04 06:25:46;;;;;;;9.30;4.38;;;17.50;91.80;;;;;;5031140;28;20030;-77
2021/08/04 06:28:12;;;;;;;9.98;4.28;;;17.60;91.70;;;;;;5030953;28;20025;-75
2021/08/04 06:30:37;;;;;;;10.63;4.47;;;17.60;91.70;;;;;;5029787;28;20116;-76
2021/08/04 06:33:03;;;;;;;9.77;4.38;;;17.70;91.70;;;;;;5030961;28;20037;-76
2021/08/04 06:35:29;;;;;;;8.77;4.22;;;17.70;91.70;;;;;;5031088;28;20468;-75
2021/08/04 06:37:55;;;;;;;10.48;4.10;;;17.80;91.70;;;;;;5029960;28;20042;-76
2021/08/04 06:40:20;;;;;;;11.95;6.15;;;17.80;91.70;;;;;;5031134;28;20030;-76
2021/08/04 06:42:46;;;;;;;12.02;4.68;;;17.80;91.60;;;;;;5030896;28;20038;-77
2021/08/04 06:45:12;;;;;;;8.40;4.05;;;17.90;91.80;;;;;;5030971;28;20383;-75
2021/08/04 06:47:38;;;;;;;8.88;4.78;;;18.10;91.80;;;;;;5029815;28;20179;-76
2021/08/04 06:50:04;;;;;;;11.63;4.90;;;18.40;91.60;;;;;;5030830;28;20168;-77
2021/08/04 06:52:30;;;;;;;8.63;4.70;;;18.60;91.20;;;;;;5031229;28;20032;-71
2021/08/04 06:54:56;;;;;;;9.43;4.50;;;18.70;91.00;;;;;;5032234;28;20025;-72
2021/08/04 06:57:21;;;;;;;10.25;4.75;;;18.70;90.90;;;;;;5034973;28;20131;-76
2021/08/04 06:59:47;;;;;;;10.05;4.75;;;18.70;90.80;;;;;;5035082;28;20084;-76
2021/08/04 07:02:13;;;;;;;11.10;4.93;;;18.60;90.80;;;;;;5033435;28;20046;-76
2021/08/04 07:04:38;;;;;;;9.68;4.57;;;18.60;90.80;;;;;;5017091;28;20051;-77
2021/08/04 07:07:04;;;;;;;9.98;4.55;;;18.60;90.80;;;;;;5034711;28;20025;-77
2021/08/04 07:09:34;;;;;;;9.07;4.78;;;18.60;90.70;;;;;;5033675;28;20026;-76
2021/08/04 07:12:01;;;;;;;9.40;4.43;;;18.60;90.80;;;;;;5034506;28;20033;-77
2021/08/04 07:14:26;;;;;;;8.20;4.30;;;18.60;90.80;;;;;;5034649;28;20029;-78
2021/08/04 07:16:52;;;;;;;7.70;4.10;;;18.60;90.80;;;;;;5033396;28;20031;-76
2021/08/04 07:19:18;;;;;;;9.93;4.55;;;18.70;90.90;;;;;;5034822;28;20505;-76
2021/08/04 07:21:44;;;;;;;10.90;4.60;;;18.80;90.80;;;;;;5016867;28;20029;-76
2021/08/04 07:24:11;;;;;;;9.52;4.25;;;18.90;90.70;;;;;;5034550;28;20117;-76
2021/08/04 07:26:39;;;;;;;9.77;4.70;;;19.00;90.60;;;;;;5032904;28;20025;-75
2021/08/04 07:29:06;;;;;;;9.15;4.55;;;19.20;90.50;;;;;;5033070;28;20542;-76
2021/08/04 07:31:33;;;;;;;8.65;4.60;;;19.30;90.20;;;;;;5032947;28;20034;-77
2021/08/04 07:33:58;;;;;;;9.55;4.57;;;19.40;90.00;;;;;;5034423;28;20026;-77
2021/08/04 07:36:24;;;;;;;9.80;5.07;;;19.40;89.60;;;;;;5034243;28;20033;-76
2021/08/04 07:38:50;;;;;;;9.63;4.65;;;19.40;89.40;;;;;;5034308;28;20033;-75
2021/08/04 07:41:16;;;;;;;8.43;4.30;;;19.30;89.40;;;;;;5032935;28;20091;-76
2021/08/04 07:43:43;;;;;;;12.40;5.30;;;19.30;90.00;;;;;;5034092;28;20541;-75
2021/08/04 07:46:08;;;;;;;14.68;5.40;;;19.40;89.50;;;;;;5032577;28;20029;-74
2021/08/04 07:48:35;;;;;;;12.68;5.55;;;19.50;89.30;;;;;;5034119;28;20025;-75
2021/08/04 07:51:02;;;;;;;10.80;5.07;;;19.60;89.10;;;;;;5034019;28;20026;-75
2021/08/04 07:53:28;;;;;;;9.80;4.85;;;19.70;88.90;;;;;;5032232;28;20357;-75
2021/08/04 07:55:54;;;;;;;11.32;5.00;;;19.80;88.70;;;;;;5033664;28;20021;-75
2021/08/04 07:58:20;;;;;;;;;;;20.00;88.50;;;;;;5034263;28;20363;-76
2021/08/04 08:00:45;;;;;;;9.20;4.40;;;20.10;88.10;;;;;;5033678;28;20311;-76
2021/08/04 08:03:11;;;;;;;;;;;20.30;87.70;;;;;;5033923;28;20046;-77
2021/08/04 08:05:36;;;;;;;13.85;4.63;;;20.30;87.30;;;;;;5033190;28;19921;-76
2021/08/04 08:08:05;;;;;;;;;;;20.50;86.90;;;;;;5016662;28;20025;-75
2021/08/04 08:10:32;;;;;;;8.95;4.18;;;20.60;86.70;;;;;;5032225;28;19955;-75
2021/08/04 08:12:59;;;;;;;8.57;4.35;;;20.80;86.20;;;;;;5033577;28;20022;-77
2021/08/04 08:15:26;;;;;;;8.88;4.20;;;21.00;85.80;;;;;;5033610;28;20387;-75
2021/08/04 08:17:51;;;;;;;9.95;4.50;;;21.30;84.90;;;;;;5033344;28;20022;-75
2021/08/04 08:20:19;;;;;;;;;;;21.40;84.20;;;;;;5033694;28;20105;-74
2021/08/04 08:22:46;;;;;;;9.10;4.65;;;21.70;84.40;;;;;;5033149;28;19955;-73
2021/08/04 08:25:13;;;;;;;10.63;5.10;;;22.20;83.80;;;;;;5031449;28;20029;-76
2021/08/04 08:27:40;;;;;;;9.65;4.40;;;22.60;82.40;;;;;;5032019;28;20067;-75
2021/08/04 08:30:06;;;;;;;9.98;4.78;;;22.90;81.00;;;;;;5033236;28;20473;-75
2021/08/04 08:32:32;;;;;;;10.65;4.70;;;23.10;79.90;;;;;;5033020;28;20078;-75
2021/08/04 08:34:58;;;;;;;;;;;23.20;79.10;;;;;;5033437;28;20030;-75
2021/08/04 08:37:23;;;;;;;10.70;4.90;;;23.30;78.70;;;;;;5033086;28;20450;-75
2021/08/04 08:39:49;;;;;;;8.68;4.43;;;23.40;78.10;;;;;;5032768;28;20033;-76
2021/08/04 08:42:19;;;;;;;9.38;4.35;;;23.60;78.00;;;;;;5031396;28;20116;-76
2021/08/04 08:44:45;;;;;;;7.95;4.60;;;23.80;77.20;;;;;;5032321;28;20022;-75
2021/08/04 08:47:11;;;;;;;8.43;4.63;;;24.20;76.50;;;;;;5032412;28;20040;-76
2021/08/04 08:49:38;;;;;;;7.93;4.32;;;24.40;75.60;;;;;;5032337;28;20025;-75
2021/08/04 08:52:04;;;;;;;8.00;4.35;;;24.80;75.10;;;;;;5031175;28;20028;-76
2021/08/04 08:54:30;;;;;;;9.35;4.30;;;25.20;73.70;;;;;;5032334;28;20029;-75
2021/08/04 08:56:55;;;;;;;11.15;4.50;;;25.50;72.70;;;;;;5030676;28;20037;-75
2021/08/04 08:59:21;;;;;;;8.60;4.32;;;25.80;71.80;;;;;;5032472;28;20113;-75
2021/08/04 09:01:47;;;;;;;9.55;4.95;;;26.10;70.90;;;;;;5030518;28;20045;-76
2021/08/04 09:04:16;;;;;;;8.45;4.60;;;26.20;69.60;;;;;;5031934;28;20350;-76
2021/08/04 09:06:54;;;;;;;9.48;5.20;;;26.20;68.40;;;;;;5014903;28;20261;-76
2021/08/04 09:09:25;;;;;;;17.73;6.75;;;25.90;68.00;;;;;;5032250;28;20408;-75
2021/08/04 09:11:53;;;;;;;8.50;4.50;;;25.60;68.30;;;;;;5030794;28;20062;-74
2021/08/04 09:14:27;;;;;;;10.02;4.28;;;25.20;68.20;;;;;;5032493;28;20021;-76
2021/08/04 09:17:04;;;;;;;10.30;4.78;;;24.90;68.70;;;;;;5031332;28;20029;-76
2021/08/04 09:19:32;;;;;;;8.70;4.53;;;25.00;69.20;;;;;;5033173;28;20030;-76
2021/08/04 09:22:24;;;;;;;8.07;4.20;;;25.20;69.10;;;;;;5033892;28;20026;-77
2021/08/04 09:24:58;;;;;;;7.90;4.10;;;25.50;68.30;;;;;;5030888;28;20056;-75
2021/08/04 09:27:42;;;;;;;10.35;4.18;;;25.60;67.30;;;;;;5047434;28;20099;-75
2021/08/04 09:30:10;;;;;;;11.40;4.95;;;25.40;66.90;;;;;;5052613;28;20104;-76
2021/08/04 09:32:36;;;;;;;7.88;4.20;;;25.40;67.10;;;;;;5052357;28;20434;-77
2021/08/04 09:35:13;;;;;;;7.22;3.97;;;25.50;67.20;;;;;;5050875;28;20033;-76
2021/08/04 09:37:39;;;;;;;8.93;4.57;;;25.80;66.60;;;;;;5045055;28;20329;-76
2021/08/04 09:40:07;;;;;;;8.00;3.78;;;25.90;66.20;;;;;;5051544;28;20021;-76
2021/08/04 09:43:05;;;;;;;10.25;4.22;;;26.00;65.70;;;;;;5045141;28;20037;-78
2021/08/04 09:45:42;;;;;;;7.90;4.15;;;26.20;65.50;;;;;;5031712;28;20527;-77
2021/08/04 09:48:09;;;;;;;8.93;4.07;;;26.40;64.90;;;;;;5044384;28;20025;-76
2021/08/04 09:50:58;;;;;;;8.73;3.80;;;26.40;64.30;;;;;;5038515;28;20489;-76
2021/08/04 09:53:31;;;;;;;12.82;5.53;;;26.30;63.60;;;;;;5036178;28;20037;-77
2021/08/04 09:56:09;;;;;;;11.05;4.78;;;26.60;64.30;;;;;;5041911;28;20479;-76
2021/08/04 09:58:41;;;;;;;9.40;5.03;;;27.10;64.20;;;;;;5043331;28;20025;-77
2021/08/04 10:01:08;;;;;;;6.15;3.63;;;27.60;63.50;;;;;;5047545;28;20032;-76
2021/08/04 10:03:34;;;;;;;7.18;3.63;;;28.10;62.90;;;;;;5047219;28;20045;-78
2021/08/04 10:05:59;;;;;;;8.95;4.43;;;28.60;62.50;;;;;;5050980;28;20032;-76
2021/08/04 10:08:26;;;;;;;7.32;4.13;;;28.80;61.00;;;;;;5051094;28;20053;-75
2021/08/04 10:10:54;;;;;;;7.80;3.83;;;28.60;60.00;;;;;;5052638;28;20028;-76
2021/08/04 10:13:29;;;;;;;8.93;3.85;;;28.10;59.50;;;;;;5051996;28;20052;-76
2021/08/04 10:16:02;;;;;;;8.40;3.85;;;27.70;59.70;;;;;;5052552;28;20571;-76
2021/08/04 10:18:32;;;;;;;6.45;3.70;;;27.40;59.90;;;;;;5050982;28;20040;-76
2021/08/04 10:21:00;;;;;;;7.28;3.58;;;27.70;61.40;;;;;;5052026;28;20025;-74
2021/08/04 10:23:27;;;;;;;6.90;3.70;;;28.60;61.10;;;;;;5052035;28;20104;-75
2021/08/04 10:25:56;;;;;;;7.95;4.25;;;28.90;59.50;;;;;;5050008;28;20601;-74
2021/08/04 10:28:22;;;;;;;6.65;3.60;;;28.90;59.00;;;;;;5051608;28;20421;-74
2021/08/04 10:30:48;;;;;;;8.20;4.30;;;29.30;58.60;;;;;;5048499;28;20039;-80
2021/08/04 10:33:15;;;;;;;8.27;4.22;;;29.60;57.70;;;;;;5052433;28;20336;-74
2021/08/04 10:35:44;;;;;;;6.13;3.67;;;29.50;56.60;;;;;;5040982;28;20121;-75
2021/08/04 10:38:14;;;;;;;7.35;3.75;;;28.80;56.00;;;;;;5039324;28;20456;-76
2021/08/04 10:40:40;;;;;;;8.85;4.22;;;28.00;56.70;;;;;;5035378;28;20022;-75
2021/08/04 10:43:06;;;;;;;9.02;4.03;;;28.20;58.90;;;;;;5044679;28;20508;-76
2021/08/04 10:45:34;;;;;;;8.43;3.60;;;29.30;59.20;;;;;;5043553;28;20021;-77
2021/08/04 10:48:23;;;;;;;7.00;3.15;;;30.60;57.60;;;;;;5043269;28;20025;-78
2021/08/04 10:51:16;;;;;;;7.55;4.10;;;31.50;56.10;;;;;;5039038;28;20022;-71
2021/08/04 10:54:00;;;;;;;6.05;3.80;;;32.30;54.90;;;;;;5032332;28;20452;-76
2021/08/04 10:56:45;;;;;;;9.35;4.43;;;32.70;53.50;;;;;;5038457;28;20025;-76
2021/08/04 10:59:11;;;;;;;7.57;4.10;;;33.10;52.80;;;;;;5039767;28;20028;-77
2021/08/04 11:01:39;;;;;;;7.57;3.72;;;33.30;52.60;;;;;;5046245;28;20108;-75
2021/08/04 11:04:09;;;;;;;6.90;3.67;;;33.20;51.40;;;;;;5039863;28;20038;-77
2021/08/04 11:06:55;;;;;;;7.03;3.60;;;32.90;50.50;;;;;;5036881;28;20033;-76
2021/08/04 11:09:21;;;;;;;6.22;3.60;;;31.90;50.10;;;;;;5039982;28;20018;-77
2021/08/04 11:11:55;;;;;;;8.27;3.60;;;31.00;51.00;;;;;;5042848;28;20039;-74
2021/08/04 11:14:39;;;;;;;5.25;3.08;;;30.40;51.30;;;;;;5042577;28;20048;-76
2021/08/04 11:17:07;;;;;;;7.80;4.00;;;30.50;52.10;;;;;;5039249;28;20029;-75
2021/08/04 11:19:53;;;;;;;6.28;3.17;;;31.20;52.10;;;;;;5039906;28;20074;-77
2021/08/04 11:22:22;;;;;;;8.43;3.43;;;32.10;51.30;;;;;;5038108;28;20029;-77
2021/08/04 11:24:53;;;;;;;6.07;3.33;;;32.80;50.80;;;;;;5038464;28;20495;-76
2021/08/04 11:27:20;;;;;;;7.38;3.25;;;33.50;50.30;;;;;;5038510;28;20021;-77
2021/08/04 11:29:47;;;;;;;6.93;3.30;;;33.80;49.00;;;;;;5039770;28;20044;-75
2021/08/04 11:32:26;;;;;;;6.35;3.90;;;33.60;48.30;;;;;;5042398;28;20139;-75
2021/08/04 11:34:52;;;;;;;6.28;3.45;;;33.40;48.50;;;;;;5040243;28;20118;-77
2021/08/04 11:37:19;;;;;;;7.30;3.47;;;33.70;49.30;;;;;;5042699;28;20025;-80
2021/08/04 11:40:03;;;;;;;7.85;3.30;;;34.30;49.10;;;;;;5037722;28;20075;-77
2021/08/04 11:42:30;;;;;;;6.32;3.40;;;34.90;48.00;;;;;;5042296;28;20029;-76
2021/08/04 11:45:07;;;;;;;6.63;3.35;;;34.80;47.50;;;;;;5045454;28;20164;-75
2021/08/04 11:47:37;;;;;;;5.97;2.80;;;34.90;47.20;;;;;;5040393;28;20116;-77
2021/08/04 11:50:06;;;;;;;6.13;3.20;;;34.90;47.20;;;;;;5049529;28;20013;-76
2021/08/04 11:52:34;;;;;;;6.93;3.40;;;34.60;46.40;;;;;;5047775;28;20028;-75
2021/08/04 11:55:07;;;;;;;8.00;3.40;;;34.10;46.70;;;;;;5045110;28;20065;-78
2021/08/04 11:57:47;;;;;;;5.30;2.80;;;34.00;46.70;;;;;;5046219;28;20029;-76
2021/08/04 12:00:28;;;;;;;5.20;3.13;;;34.20;46.70;;;;;;5051037;28;20108;-78
2021/08/04 12:02:54;;;;;;;7.00;3.72;;;34.30;46.40;;;;;;5050501;28;20564;-77
2021/08/04 12:05:20;;;;;;;5.65;3.00;;;34.30;46.60;;;;;;5044649;28;20109;-77
2021/08/04 12:07:46;;;;;;;7.03;3.28;;;34.50;46.60;;;;;;5044762;28;20025;-77
2021/08/04 12:10:15;;;;;;;5.38;3.17;;;34.30;45.90;;;;;;5050149;28;20422;-74
2021/08/04 12:12:42;;;;;;;7.53;3.28;;;34.00;46.50;;;;;;5044163;28;20075;-76
2021/08/04 12:15:14;;;;;;;6.18;3.63;;;33.70;46.30;;;;;;5040880;28;20030;-75
2021/08/04 12:17:40;;;;;;;7.32;3.40;;;33.20;46.50;;;;;;5036982;28;20044;-75
2021/08/04 12:20:19;;;;;;;7.93;4.32;;;32.90;46.90;;;;;;5043640;28;20483;-77
2021/08/04 12:22:54;;;;;;;11.27;4.65;;;33.00;47.50;;;;;;5044940;28;20071;-77
2021/08/04 12:25:20;;;;;;;;;;;33.40;47.60;;;;;;5044415;28;20029;-75
2021/08/04 12:27:49;;;;;;;9.83;4.23;;;33.00;46.60;;;;;;5044427;28;19988;-76
2021/08/04 12:30:20;;;;;;;7.07;4.00;;;32.70;47.40;;;;;;5044265;28;20021;-75
2021/08/04 12:32:58;;;;;;;7.38;4.13;;;32.20;47.10;;;;;;5040396;28;20010;-78
2021/08/04 12:35:35;;;;;;;16.60;9.95;;;31.80;47.80;;;;;;5043573;28;20020;-76
2021/08/04 12:38:06;;;;;;;8.10;4.00;;;32.00;48.50;;;;;;5047929;28;20057;-75
2021/08/04 12:40:32;;;;;;;6.60;2.88;;;32.60;48.20;;;;;;5039181;28;20047;-75
2021/08/04 12:42:58;;;;;;;4.00;2.30;;;33.10;47.30;;;;;;5042331;28;20026;-75
2021/08/04 12:45:27;;;;;;;5.03;2.55;;;33.10;46.80;;;;;;5047657;28;20029;-77
2021/08/04 12:47:55;;;;;;;5.28;2.38;;;33.20;45.90;;;;;;5043810;28;20147;-76
2021/08/04 12:50:26;;;;;;;5.72;2.58;;;33.20;45.70;;;;;;5039320;28;20033;-75
2021/08/04 12:52:52;;;;;;;7.90;4.38;;;32.80;46.10;;;;;;5033809;28;20075;-75
2021/08/04 12:55:18;;;;;;;8.82;3.63;;;32.60;46.80;;;;;;5041795;28;20044;-76